Time;durP1;ratioP1;P1;durP2;ratioP2;P2;SDS_P1;SDS_P2;PMS_P1;PMS_P2;Temp;Humidity;BMP_temperature;BMP_pressure;BME280_temperature;BME280_humidity;BME280_pressure;Samples;Min_cycle;Max_cycle;Signal;HPM_P1;HPM_P2
2022/02/12 00:02:06;;;;;;;55.65;26.37;;;;;;;0.43;100.00;100185.64;1722012;82;21573;-70
2022/02/12 00:04:34;;;;;;;51.15;24.82;;;;;;;0.36;100.00;100173.08;1716809;83;21049;-73
2022/02/12 00:07:01;;;;;;;56.00;25.65;;;;;;;0.30;100.00;100174.77;1693477;84;21164;-71
2022/02/12 00:09:27;;;;;;;59.83;29.52;;;;;;;0.25;100.00;100175.17;1684474;85;21046;-70
2022/02/12 00:11:54;;;;;;;111.83;33.75;;;;;;;0.20;100.00;100178.59;1686464;85;21109;-70
2022/02/12 00:14:20;;;;;;;55.88;24.00;;;;;;;0.16;100.00;100180.76;1712933;83;21076;-71
2022/02/12 00:16:48;;;;;;;39.53;20.37;;;;;;;0.12;100.00;100177.70;1717383;80;20910;-70
2022/02/12 00:19:14;;;;;;;33.50;15.83;;;;;;;0.08;100.00;100173.36;1717245;83;21205;-71
2022/02/12 00:21:41;;;;;;;28.98;15.30;;;;;;;0.06;100.00;100167.30;1713023;83;21662;-70
2022/02/12 00:24:07;;;;;;;22.77;12.85;;;;;;;0.04;100.00;100169.44;1712737;83;21099;-69
2022/02/12 00:26:34;;;;;;;21.48;12.63;;;;;;;0.00;100.00;100163.39;1712625;83;21076;-71
2022/02/12 00:29:00;;;;;;;19.27;11.63;;;;;;;-0.02;100.00;100171.58;1712228;82;21053;-70
2022/02/12 00:31:27;;;;;;;19.67;11.97;;;;;;;-0.04;100.00;100171.56;1712534;82;21073;-70
2022/02/12 00:33:53;;;;;;;19.90;11.88;;;;;;;-0.06;100.00;100173.70;1712490;82;21122;-69
2022/02/12 00:36:19;;;;;;;19.42;12.03;;;;;;;-0.08;100.00;100169.80;1711907;82;21071;-70
2022/02/12 00:38:46;;;;;;;28.52;19.00;;;;;;;-0.09;100.00;100160.71;1710685;82;21082;-70
2022/02/12 00:41:12;;;;;;;60.50;29.30;;;;;;;-0.10;100.00;100161.58;1710829;82;21114;-70
2022/02/12 00:43:39;;;;;;;105.05;24.07;;;;;;;-0.12;100.00;100151.20;1710912;83;21224;-72
2022/02/12 00:46:06;;;;;;;33.58;15.18;;;;;;;-0.14;100.00;100140.41;1711011;83;21118;-70
2022/02/12 00:48:33;;;;;;;26.48;13.72;;;;;;;-0.14;100.00;100141.70;1711118;83;21188;-69
2022/02/12 00:51:00;;;;;;;31.25;16.45;;;;;;;-0.16;100.00;100135.25;1710684;83;21603;-71
2022/02/12 00:53:27;;;;;;;27.62;16.17;;;;;;;-0.16;100.00;100132.66;1711112;83;21154;-69
2022/02/12 00:55:56;;;;;;;28.73;16.10;;;;;;;-0.16;100.00;100134.35;1657148;85;21186;-71
2022/02/12 00:58:22;;;;;;;27.73;15.83;;;;;;;-0.19;100.00;100116.23;1710770;83;21138;-70
2022/02/12 01:00:49;;;;;;;28.77;15.35;;;;;;;-0.20;100.00;100115.80;1711290;83;21597;-67
2022/02/12 01:03:15;;;;;;;24.70;14.63;;;;;;;-0.22;100.00;100114.05;1712581;82;21084;-69
2022/02/12 01:05:42;;;;;;;25.95;15.63;;;;;;;-0.22;100.00;100109.31;1712679;83;21088;-69
2022/02/12 01:08:08;;;;;;;28.05;16.35;;;;;;;-0.22;100.00;100097.23;1719691;83;22011;-69
2022/02/12 01:10:35;;;;;;;43.73;26.85;;;;;;;-0.22;100.00;100100.25;1725047;82;21085;-68
2022/02/12 01:13:02;;;;;;;43.65;30.17;;;;;;;-0.20;100.00;100095.09;1724913;83;21143;-69
2022/02/12 01:15:31;;;;;;;58.73;19.23;;;;;;;-0.19;100.00;100089.05;1725339;82;20995;-70
2022/02/12 01:18:00;;;;;;;76.92;21.73;;;;;;;-0.19;100.00;100091.20;1725192;82;21110;-70
2022/02/12 01:20:27;;;;;;;44.10;17.45;;;;;;;-0.20;100.00;100082.16;1725327;83;21200;-70
2022/02/12 01:22:54;;;;;;;30.35;15.25;;;;;;;-0.20;100.00;100079.12;1724914;83;21087;-70
2022/02/12 01:25:20;;;;;;;21.57;13.30;;;;;;;-0.20;100.00;100075.69;1725360;83;21089;-69
2022/02/12 01:27:47;;;;;;;21.82;12.93;;;;;;;-0.22;100.00;100067.90;1725326;82;21042;-68
2022/02/12 01:30:14;;;;;;;20.70;11.68;;;;;;;-0.24;100.00;100066.59;1725502;83;21098;-69
2022/02/12 01:32:40;;;;;;;19.60;11.38;;;;;;;-0.24;100.00;100073.49;1725444;82;21147;-71
2022/02/12 01:35:08;;;;;;;20.30;11.18;;;;;;;-0.25;100.00;100081.69;1725179;82;21080;-69
2022/02/12 01:37:35;;;;;;;17.32;10.10;;;;;;;-0.25;100.00;100084.28;1725256;83;21299;-69
2022/02/12 01:40:03;;;;;;;26.90;13.30;;;;;;;-0.24;100.00;100088.59;1724832;83;21104;-69
2022/02/12 01:42:30;;;;;;;21.55;11.38;;;;;;;-0.26;100.00;100086.41;1725512;83;21100;-70
2022/02/12 01:45:00;;;;;;;20.10;10.55;;;;;;;-0.26;100.00;100081.23;1725284;83;21997;-69
2022/02/12 01:47:27;;;;;;;16.62;8.88;;;;;;;-0.26;100.00;100084.26;1725337;82;21088;-69
2022/02/12 01:49:54;;;;;;;58.83;24.57;;;;;;;-0.26;100.00;100092.88;1725681;82;21080;-69
2022/02/12 01:52:22;;;;;;;18.30;11.30;;;;;;;-0.24;100.00;100101.53;1725466;82;21539;-68
2022/02/12 01:54:49;;;;;;;63.98;13.20;;;;;;;-0.24;100.00;100096.34;1725351;83;21045;-69
2022/02/12 01:57:15;;;;;;;31.35;8.83;;;;;;;-0.24;100.00;100091.17;1725283;83;21331;-69
2022/02/12 01:59:42;;;;;;;27.02;9.65;;;;;;;-0.24;100.00;100083.41;1725284;82;21485;-69
2022/02/12 02:02:09;;;;;;;18.32;8.33;;;;;;;-0.26;100.00;100083.83;1725250;82;21064;-69
2022/02/12 02:04:35;;;;;;;20.92;8.68;;;;;;;-0.29;100.00;100085.55;1725446;82;21164;-68
2022/02/12 02:07:02;;;;;;;15.53;9.48;;;;;;;-0.29;100.00;100087.70;1675077;83;21064;-69
2022/02/12 02:09:30;;;;;;;13.30;7.45;;;;;;;-0.30;100.00;100087.67;1724954;83;21146;-70
2022/02/12 02:11:57;;;;;;;8.08;5.80;;;;;;;-0.31;100.00;100082.94;1725129;82;21052;-68
2022/02/12 02:14:35;;;;;;;10.32;6.97;;;;;;;-0.32;100.00;100077.34;1725356;83;21093;-68
2022/02/12 02:17:02;;;;;;;8.78;5.80;;;;;;;-0.34;100.00;100075.16;1725612;83;21115;-68
2022/02/12 02:19:32;;;;;;;9.08;5.83;;;;;;;-0.32;100.00;100086.80;1725207;83;21053;-69
2022/02/12 02:22:00;;;;;;;9.70;5.58;;;;;;;-0.32;100.00;100085.10;1725597;82;21140;-69
2022/02/12 02:24:28;;;;;;;10.80;6.53;;;;;;;-0.33;100.00;100095.00;1725172;83;21077;-69
2022/02/12 02:27:08;;;;;;;13.15;7.78;;;;;;;-0.32;100.00;100095.45;1724991;83;21043;-70
2022/02/12 02:29:39;;;;;;;13.63;6.73;;;;;;;-0.30;100.00;100096.73;1725750;83;21075;-67
2022/02/12 02:32:07;;;;;;;9.65;5.00;;;;;;;-0.26;100.00;100107.11;1702303;83;21115;-69
2022/02/12 02:34:37;;;;;;;15.28;6.53;;;;;;;-0.24;100.00;100109.29;1725671;83;21123;-69
2022/02/12 02:37:04;;;;;;;8.88;5.03;;;;;;;-0.21;100.00;100114.91;1726138;83;21067;-69
2022/02/12 02:39:33;;;;;;;7.33;4.62;;;;;;;-0.19;100.00;100121.41;1725713;81;21620;-69
2022/02/12 02:42:01;;;;;;;5.87;3.95;;;;;;;-0.19;100.00;100122.27;1725940;83;21035;-68
2022/02/12 02:44:27;;;;;;;5.22;3.05;;;;;;;-0.18;100.00;100120.53;1725834;83;21044;-68
2022/02/12 02:46:53;;;;;;;4.40;3.25;;;;;;;-0.17;100.00;100126.16;1726032;83;21527;-68
2022/02/12 02:49:20;;;;;;;5.22;3.33;;;;;;;-0.17;100.00;100126.16;1725609;83;21076;-69
2022/02/12 02:57:17;;;;;;;4.17;3.08;;;;;;;-0.19;100.00;100131.75;1725924;83;21045;-69
2022/02/12 02:59:44;;;;;;;6.78;4.65;;;;;;;-0.20;100.00;100136.51;1726126;83;21127;-69
2022/02/12 03:02:10;;;;;;;4.28;2.92;;;;;;;-0.21;100.00;100142.09;1726015;83;21032;-69
2022/02/12 03:04:37;;;;;;;4.30;2.98;;;;;;;-0.22;100.00;100138.64;1725910;83;21063;-69
2022/02/12 03:07:04;;;;;;;16.40;5.50;;;;;;;-0.23;100.00;100140.80;1726116;83;21088;-69
2022/02/12 03:09:30;;;;;;;14.80;5.83;;;;;;;-0.22;100.00;100148.13;1723222;83;21067;-69
2022/02/12 03:11:57;;;;;;;5.22;3.12;;;;;;;-0.22;100.00;100151.58;1722843;83;22044;-70
2022/02/12 03:14:24;;;;;;;5.03;2.75;;;;;;;-0.19;100.00;100160.23;1695907;83;21099;-70
2022/02/12 03:16:51;;;;;;;6.17;3.00;;;;;;;-0.37;100.00;100134.64;1691354;83;21115;-70
2022/02/12 03:19:17;;;;;;;4.42;2.70;;;;;;;-0.18;100.00;100178.77;1690912;84;21055;-69
2022/02/12 03:21:44;;;;;;;4.28;2.50;;;;;;;-0.17;100.00;100183.97;1691218;84;22321;-69
2022/02/12 03:24:10;;;;;;;4.53;2.40;;;;;;;-0.14;100.00;100190.45;1691329;84;21129;-69
2022/02/12 03:26:37;;;;;;;4.53;2.40;;;;;;;-0.12;100.00;100196.95;1691132;84;21110;-69
2022/02/12 03:29:05;;;;;;;3.58;2.30;;;;;;;-0.11;100.00;100203.88;1691130;84;21114;-70
2022/02/12 03:31:32;;;;;;;3.92;2.45;;;;;;;-0.11;100.00;100205.17;1691232;84;21102;-69
2022/02/12 03:34:00;;;;;;;3.05;2.08;;;;;;;-0.10;100.00;100213.36;1690984;84;21114;-69
2022/02/12 03:36:26;;;;;;;4.45;1.90;;;;;;;-0.09;100.00;100217.67;1691053;84;21563;-70
2022/02/12 03:38:53;;;;;;;2.58;2.00;;;;;;;-0.09;100.00;100220.25;1690785;83;21031;-68
2022/02/12 03:41:19;;;;;;;5.97;2.00;;;;;;;-0.07;100.00;100225.02;1691183;83;21044;-69
2022/02/12 03:43:46;;;;;;;2.80;1.98;;;;;;;-0.07;100.00;100234.08;1691092;84;21129;-69
2022/02/12 03:46:12;;;;;;;2.17;1.50;;;;;;;-0.09;100.00;100235.39;1691621;84;21039;-69
2022/02/12 03:48:39;;;;;;;5.08;2.20;;;;;;;-0.07;100.00;100245.33;1691304;84;21590;-70
2022/02/12 03:51:05;;;;;;;1.70;1.35;;;;;;;-0.09;100.00;100237.08;1690941;84;21121;-70
2022/02/12 03:53:32;;;;;;;1.85;1.10;;;;;;;0.04;100.00;100245.39;1691250;83;21110;-69
2022/02/12 03:55:58;;;;;;;2.17;1.42;;;;;;;0.02;100.00;100243.65;1691308;84;21138;-70
2022/02/12 03:58:24;;;;;;;2.15;1.20;;;;;;;0.03;100.00;100252.73;1691102;84;21051;-69
2022/02/12 04:00:51;;;;;;;2.52;1.37;;;;;;;0.02;100.00;100261.34;1689677;84;21146;-69
2022/02/12 04:03:18;;;;;;;1.40;1.00;;;;;;;0.03;100.00;100268.27;1690865;84;21063;-65
2022/02/12 04:05:44;;;;;;;1.27;1.00;;;;;;;0.02;100.00;100270.41;1691172;84;21234;-65
2022/02/12 04:08:13;;;;;;;1.70;1.20;;;;;;;0.06;100.00;100283.82;1690133;82;21558;-67
2022/02/12 04:10:40;;;;;;;1.10;1.00;;;;;;;0.07;100.00;100290.75;1710624;83;21027;-68
2022/02/12 04:13:07;;;;;;;1.20;1.00;;;;;;;0.11;100.00;100294.22;1711000;82;21590;-67
2022/02/12 04:15:34;;;;;;;2.17;1.20;;;;;;;0.10;100.00;100295.95;1711364;83;21069;-66
2022/02/12 04:18:00;;;;;;;2.37;1.65;;;;;;;0.10;100.00;100301.56;1709293;82;21034;-66
2022/02/12 04:20:27;;;;;;;3.15;2.25;;;;;;;0.08;100.00;100310.60;1706696;83;21081;-66
2022/02/12 04:22:54;;;;;;;4.50;2.50;;;;;;;0.10;100.00;100316.66;1712427;82;21614;-67
2022/02/12 04:25:22;;;;;;;5.40;2.90;;;;;;;0.14;100.00;100319.73;1712512;82;21781;-66
2022/02/12 04:27:50;;;;;;;5.00;3.15;;;;;;;0.18;100.00;100327.97;1712299;82;21507;-65
2022/02/12 04:30:16;;;;;;;5.70;3.15;;;;;;;0.22;100.00;100333.17;1711929;82;21069;-67
2022/02/12 04:32:43;;;;;;;4.87;3.08;;;;;;;0.22;100.00;100335.75;1710979;82;21062;-68
2022/02/12 04:35:12;;;;;;;4.70;2.35;;;;;;;0.19;100.00;100340.48;1707365;82;21524;-68
2022/02/12 04:37:39;;;;;;;3.08;2.25;;;;;;;0.19;100.00;100334.88;1710607;83;21634;-68
2022/02/12 04:40:07;;;;;;;4.65;2.15;;;;;;;0.19;100.00;100338.76;1711047;83;21018;-68
2022/02/12 04:42:34;;;;;;;2.22;1.67;;;;;;;0.18;100.00;100346.10;1656146;85;21159;-68
2022/02/12 04:45:01;;;;;;;2.75;1.40;;;;;;;0.17;100.00;100359.03;1677905;85;21088;-69
2022/02/12 04:47:29;;;;;;;3.45;1.52;;;;;;;0.13;100.00;100356.83;1681159;84;21580;-68
2022/02/12 04:49:55;;;;;;;4.85;2.00;;;;;;;0.08;100.00;100367.58;1677899;85;21561;-69
2022/02/12 04:52:23;;;;;;;4.05;1.90;;;;;;;0.05;100.00;100368.84;1679749;85;21014;-67
2022/02/12 04:54:50;;;;;;;2.70;1.95;;;;;;;0.01;100.00;100372.69;1673520;84;21037;-69
2022/02/12 04:57:16;;;;;;;2.92;1.62;;;;;;;-0.02;100.00;100385.19;1681566;85;21073;-68
2022/02/12 04:59:43;;;;;;;2.62;1.70;;;;;;;-0.04;100.00;100388.18;1680275;85;21045;-69
2022/02/12 05:02:09;;;;;;;3.85;1.50;;;;;;;-0.03;100.00;100405.00;1661158;84;21130;-69
2022/02/12 05:04:37;;;;;;;2.77;1.70;;;;;;;-0.04;100.00;100407.59;1677721;85;21061;-69
2022/02/12 05:07:04;;;;;;;2.42;1.65;;;;;;;-0.06;100.00;100415.77;1678115;85;21068;-70
2022/02/12 05:09:34;;;;;;;2.83;1.92;;;;;;;-0.06;100.00;100419.66;1677519;85;21087;-68
2022/02/12 05:11:59;;;;;;;2.72;1.70;;;;;;;-0.08;100.00;100427.83;1677559;85;21076;-69
2022/02/12 05:14:29;;;;;;;2.30;1.32;;;;;;;-0.10;100.00;100433.41;1671219;85;21997;-69
2022/02/12 05:16:54;;;;;;;2.08;1.60;;;;;;;-0.12;100.00;100442.45;1670202;85;21684;-68
2022/02/12 05:19:21;;;;;;;1.82;1.47;;;;;;;-0.13;100.00;100446.33;1670783;85;21050;-70
2022/02/12 05:21:47;;;;;;;2.67;1.67;;;;;;;-0.11;100.00;100454.55;1671992;85;21034;-69
2022/02/12 05:24:14;;;;;;;4.10;1.70;;;;;;;-0.06;100.00;100452.02;1673999;84;21082;-69
2022/02/12 05:26:40;;;;;;;3.45;1.30;;;;;;;-0.04;100.00;100455.50;1670198;85;21201;-69
2022/02/12 05:29:07;;;;;;;3.37;1.70;;;;;;;-0.01;100.00;100458.97;1666931;84;21118;-69
2022/02/12 05:31:33;;;;;;;3.22;1.82;;;;;;;0.02;100.00;100471.08;1675248;84;21630;-70
2022/02/12 05:34:00;;;;;;;2.45;1.70;;;;;;;0.06;100.00;100473.30;1671722;84;21105;-68
2022/02/12 05:36:26;;;;;;;2.37;1.47;;;;;;;0.06;100.00;100478.04;1675178;84;21085;-68
2022/02/12 05:38:53;;;;;;;2.12;1.30;;;;;;;0.07;100.00;100485.38;1675574;84;21212;-70
2022/02/12 05:41:20;;;;;;;3.37;1.50;;;;;;;0.07;100.00;100488.86;1674480;84;21085;-71
2022/02/12 05:43:46;;;;;;;3.00;1.42;;;;;;;0.10;100.00;100500.53;1673627;84;21081;-69
2022/02/12 05:46:13;;;;;;;2.35;1.65;;;;;;;0.12;100.00;100499.27;1675175;84;21160;-71
2022/02/12 05:48:40;;;;;;;3.33;1.70;;;;;;;0.17;100.00;100506.23;1673176;84;21176;-71
2022/02/12 05:51:08;;;;;;;1.57;1.47;;;;;;;0.20;100.00;100512.73;1676106;84;21053;-70
2022/02/12 05:53:34;;;;;;;1.90;1.50;;;;;;;0.26;100.00;100514.53;1669077;84;21222;-70
2022/02/12 05:56:01;;;;;;;4.42;1.87;;;;;;;0.31;100.00;100514.58;1673988;84;21117;-66
2022/02/12 05:58:30;;;;;;;2.90;1.65;;;;;;;0.34;100.00;100527.56;1677138;84;21128;-68
2022/02/12 06:00:56;;;;;;;3.02;1.60;;;;;;;0.40;100.00;100531.52;1673131;84;21093;-67
2022/02/12 06:03:23;;;;;;;3.20;1.55;;;;;;;0.44;100.00;100539.78;1677109;84;21159;-68
2022/02/12 06:05:50;;;;;;;4.05;1.62;;;;;;;0.46;100.00;100544.95;1679130;84;21590;-67
2022/02/12 06:08:16;;;;;;;2.35;1.50;;;;;;;0.50;100.00;100551.48;1674638;84;21069;-67
2022/02/12 06:10:45;;;;;;;5.83;2.05;;;;;;;0.50;100.00;100555.37;1673793;84;21629;-69
2022/02/12 06:13:11;;;;;;;3.52;2.05;;;;;;;0.48;100.00;100559.66;1678699;84;21093;-67
2022/02/12 06:15:39;;;;;;;4.83;2.20;;;;;;;0.47;100.00;100573.48;1682615;84;21582;-70
2022/02/12 06:18:06;;;;;;;4.92;2.10;;;;;;;0.44;100.00;100574.77;1669994;84;21074;-68
2022/02/12 06:20:33;;;;;;;13.65;3.42;;;;;;;0.45;100.00;100575.63;1674953;84;21136;-68
2022/02/12 06:23:00;;;;;;;5.40;2.15;;;;;;;0.43;100.00;100583.80;1678807;84;21168;-69
2022/02/12 06:25:27;;;;;;;7.22;2.52;;;;;;;0.43;100.00;100587.69;1678978;85;21600;-69
2022/02/12 06:27:53;;;;;;;3.98;1.85;;;;;;;0.42;100.00;100585.53;1677830;85;21078;-68
2022/02/12 06:30:20;;;;;;;3.67;1.72;;;;;;;0.40;100.00;100589.82;1670033;85;21100;-66
2022/02/12 06:32:47;;;;;;;14.65;3.50;;;;;;;0.48;100.00;100590.77;1670338;84;21049;-67
2022/02/12 06:35:14;;;;;;;16.10;4.35;;;;;;;0.51;100.00;100599.89;1679646;85;21100;-69
2022/02/12 06:37:40;;;;;;;6.25;2.27;;;;;;;0.58;100.00;100609.91;1681299;83;21077;-69
2022/02/12 06:40:09;;;;;;;6.87;2.95;;;;;;;0.63;100.00;100608.23;1682293;85;21219;-68
2022/02/12 06:42:36;;;;;;;3.15;1.70;;;;;;;0.67;100.00;100614.30;1681769;85;21022;-69
2022/02/12 06:45:02;;;;;;;3.85;1.87;;;;;;;0.70;100.00;100611.76;1673459;84;21101;-67
2022/02/12 06:47:30;;;;;;;3.65;2.10;;;;;;;0.72;100.00;100616.53;1679809;84;21660;-67
2022/02/12 06:49:56;;;;;;;2.45;1.80;;;;;;;0.72;100.00;100621.72;1678339;84;21087;-68
2022/02/12 06:52:23;;;;;;;1.87;1.62;;;;;;;0.78;100.00;100623.95;1678234;84;21145;-69
2022/02/12 06:54:49;;;;;;;3.80;2.62;;;;;;;0.84;100.00;100633.51;1682197;85;21050;-67
2022/02/12 06:57:15;;;;;;;2.92;2.33;;;;;;;0.86;100.00;100635.70;1679158;85;21085;-68
2022/02/12 06:59:43;;;;;;;2.92;1.70;;;;;;;0.84;100.00;100642.58;1683114;85;21590;-69
2022/02/12 07:02:09;;;;;;;2.22;1.80;;;;;;;0.87;100.00;100645.63;1670588;84;21104;-69
2022/02/12 07:04:36;;;;;;;2.87;1.77;;;;;;;0.93;100.00;100658.67;1672215;85;22117;-70
2022/02/12 07:07:03;;;;;;;2.20;1.70;;;;;;;0.94;100.00;100667.75;1658749;85;21073;-71
2022/02/12 07:09:31;;;;;;;2.55;2.12;;;;;;;1.00;100.00;100668.26;1674261;84;21105;-71
2022/02/12 07:11:58;;;;;;;3.22;2.00;;;;;;;1.03;100.00;100666.55;1680661;85;21113;-70
2022/02/12 07:14:25;;;;;;;3.25;2.27;;;;;;;1.02;100.00;100670.01;1682387;85;21760;-71
2022/02/12 07:16:51;;;;;;;3.40;2.27;;;;;;;1.02;100.00;100671.31;1683115;85;21115;-67
2022/02/12 07:19:18;;;;;;;1.85;1.60;;;;;;;1.04;100.00;100673.49;1682501;84;21129;-68
2022/02/12 07:21:44;;;;;;;2.58;1.92;;;;;;;1.09;100.00;100680.03;1674780;84;21725;-67
2022/02/12 07:24:11;;;;;;;2.40;1.87;;;;;;;1.16;100.00;100693.94;1673330;84;21100;-67
2022/02/12 07:26:39;;;;;;;3.92;2.15;;;;;;;1.16;100.00;100699.98;1673930;84;21081;-69
2022/02/12 07:29:07;;;;;;;2.75;1.70;;;;;;;1.19;100.00;100706.92;1673736;85;21058;-67
2022/02/12 07:31:34;;;;;;;3.05;2.17;;;;;;;1.22;100.00;100712.14;1668068;85;21611;-69
2022/02/12 07:34:00;;;;;;;4.15;2.30;;;;;;;1.38;100.00;100717.95;1658965;85;21071;-69
2022/02/12 07:36:28;;;;;;;2.58;1.90;;;;;;;1.38;100.00;100717.95;1668529;84;21650;-68
2022/02/12 07:38:54;;;;;;;3.87;1.87;;;;;;;1.45;100.00;100721.05;1667170;85;21146;-69
2022/02/12 07:41:21;;;;;;;5.08;2.00;;;;;;;1.45;100.00;100708.50;1671821;85;22178;-69
2022/02/12 07:43:47;;;;;;;3.72;2.12;;;;;;;1.57;100.00;100725.91;1666218;85;21122;-68
2022/02/12 07:46:14;;;;;;;4.83;2.05;;;;;;;1.62;100.00;100729.42;1658893;84;21152;-69
2022/02/12 07:48:42;;;;;;;6.72;2.17;;;;;;;1.69;100.00;100740.30;1668854;84;21113;-70
2022/02/12 07:51:09;;;;;;;4.40;2.08;;;;;;;1.66;100.00;100750.23;1664657;84;21108;-69
2022/02/12 07:53:35;;;;;;;4.80;2.10;;;;;;;1.63;100.00;100758.41;1665666;85;21116;-68
2022/02/12 07:56:04;;;;;;;5.12;2.08;;;;;;;1.55;100.00;100775.22;1664678;85;21083;-69
2022/02/12 07:58:31;;;;;;;3.15;1.95;;;;;;;1.55;100.00;100775.22;1669597;85;21083;-68
2022/02/12 08:00:58;;;;;;;3.33;1.85;;;;;;;1.58;100.00;100773.07;1667416;84;21085;-68
2022/02/12 08:03:26;;;;;;;3.98;2.45;;;;;;;1.56;100.00;100769.16;1672178;83;21135;-69
2022/02/12 08:05:52;;;;;;;5.12;1.90;;;;;;;1.51;100.00;100767.38;1664779;85;21143;-69
2022/02/12 08:08:20;;;;;;;4.40;1.92;;;;;;;1.50;100.00;100768.25;1677391;85;21069;-69
2022/02/12 08:13:31;;;;;;;3.42;2.30;;;;;;;1.57;100.00;100778.70;1668399;85;21142;-68
2022/02/12 08:15:58;;;;;;;7.90;2.55;;;;;;;1.61;100.00;100778.28;1659566;85;21032;-68
2022/02/12 08:18:24;;;;;;;3.87;2.22;;;;;;;1.61;100.00;100788.67;1661311;85;21515;-68
2022/02/12 08:20:51;;;;;;;5.25;2.58;;;;;;;1.60;100.00;100786.51;1679865;84;21016;-68
2022/02/12 08:24:22;;;;;;;3.60;2.60;;;;;;;1.63;100.00;100799.95;1786769;79;22617;-68
2022/02/12 08:26:51;;;;;;;7.00;3.20;;;;;;;1.56;100.00;100800.73;1744224;80;21077;-69
2022/02/12 08:29:17;;;;;;;5.08;3.33;;;;;;;1.52;100.00;100808.05;1739291;81;21961;-68
2022/02/12 08:31:45;;;;;;;5.78;3.40;;;;;;;1.53;100.00;100807.21;1745918;81;21045;-68
2022/02/12 08:34:12;;;;;;;6.60;3.25;;;;;;;1.53;100.00;100815.00;1751471;81;21017;-67
2022/02/12 08:36:41;;;;;;;7.33;4.03;;;;;;;1.57;100.00;100830.63;1760285;80;21107;-68
2022/02/12 08:39:07;;;;;;;8.18;3.55;;;;;;;1.53;100.00;100824.95;1763493;80;21310;-68
2022/02/12 08:41:34;;;;;;;6.03;4.10;;;;;;;1.51;100.00;100835.73;1762030;80;21117;-67
2022/02/12 08:44:00;;;;;;;8.03;4.28;;;;;;;1.54;100.00;100840.09;1765826;80;21019;-68
2022/02/12 08:46:27;;;;;;;7.83;4.37;;;;;;;1.52;100.00;100843.09;1767985;80;21051;-67
2022/02/12 08:48:54;;;;;;;8.45;4.20;;;;;;;1.51;100.00;100855.64;1770650;80;21052;-67
2022/02/12 08:51:20;;;;;;;9.45;4.35;;;;;;;1.52;100.00;100864.75;1768801;80;21601;-67
2022/02/12 08:53:48;;;;;;;10.23;4.30;;;;;;;1.52;100.00;100865.16;1772956;80;21438;-68
2022/02/12 08:56:14;;;;;;;8.38;4.25;;;;;;;1.51;100.00;100869.92;1766123;80;21208;-68
2022/02/12 08:58:41;;;;;;;11.78;4.65;;;;;;;1.43;100.00;100869.41;1766811;80;20984;-68
2022/02/12 09:01:08;;;;;;;7.78;4.50;;;;;;;1.46;100.00;100873.33;1764441;80;21043;-68
2022/02/12 09:03:35;;;;;;;8.00;4.03;;;;;;;1.46;100.00;100875.92;1767609;80;21039;-67
2022/02/12 09:06:02;;;;;;;6.47;4.03;;;;;;;1.47;100.00;100880.67;1768539;80;21477;-68
2022/02/12 09:08:28;;;;;;;6.35;3.92;;;;;;;1.51;100.00;100890.69;1771719;80;21086;-68
2022/02/12 09:10:55;;;;;;;8.03;4.50;;;;;;;1.52;100.00;100893.71;1764684;80;21028;-68
2022/02/12 09:13:22;;;;;;;7.60;4.53;;;;;;;1.58;100.00;100901.59;1768075;80;21056;-68
2022/02/12 09:15:48;;;;;;;9.73;4.45;;;;;;;1.63;100.00;100907.70;1770903;80;21055;-68
2022/02/12 09:18:15;;;;;;;14.28;4.45;;;;;;;1.66;100.00;100914.24;1761792;80;21423;-69
2022/02/12 09:20:43;;;;;;;9.15;4.42;;;;;;;1.73;100.00;100913.46;1770612;80;21735;-68
2022/02/12 09:23:09;;;;;;;10.93;4.60;;;;;;;1.76;100.00;100921.71;1763279;80;21096;-69
2022/02/12 09:25:35;;;;;;;7.22;4.70;;;;;;;1.80;100.00;100918.30;1773398;80;21087;-68
2022/02/12 09:28:04;;;;;;;9.20;4.42;;;;;;;1.89;100.00;100932.69;1759535;80;21039;-69
2022/02/12 09:30:32;;;;;;;12.73;5.28;;;;;;;1.95;100.00;100936.63;1756159;80;21080;-69
2022/02/12 09:32:59;;;;;;;8.00;4.30;;;;;;;1.98;100.00;100935.80;1776451;80;21091;-69
2022/02/12 09:35:25;;;;;;;9.90;5.33;;;;;;;1.98;100.00;100935.80;1758171;80;20992;-70
2022/02/12 09:37:52;;;;;;;7.45;4.25;;;;;;;2.03;100.00;100938.04;1756535;81;21005;-71
2022/02/12 09:40:18;;;;;;;7.87;4.40;;;;;;;2.06;100.00;100941.95;1754361;80;21044;-70
2022/02/12 09:42:50;;;;;;;9.93;4.55;;;;;;;2.04;100.00;100942.36;1763897;80;21172;-70
2022/02/12 09:45:14;;;;;;;10.28;5.12;;;;;;;2.01;100.00;100946.23;1752614;80;21040;-70
2022/02/12 09:47:49;;;;;;;10.58;4.90;;;;;;;1.98;100.00;100951.38;1757538;80;21040;-69
2022/02/12 09:50:20;;;;;;;11.93;5.40;;;;;;;1.82;100.00;100951.22;1752936;81;21352;-70
2022/02/12 09:52:53;;;;;;;11.35;4.75;;;;;;;1.82;100.00;100951.22;1760946;80;21049;-71
2022/02/12 09:55:23;;;;;;;13.25;5.22;;;;;;;1.77;100.00;100960.70;1763030;80;21673;-71
2022/02/12 09:57:50;;;;;;;10.13;4.83;;;;;;;1.71;100.00;100960.61;1773743;80;21017;-71
2022/02/12 10:00:17;;;;;;;11.68;4.95;;;;;;;1.67;100.00;100971.37;1774131;80;21098;-71
2022/02/12 10:02:46;;;;;;;16.55;5.62;;;;;;;1.63;100.00;100973.50;1773298;80;21087;-70
2022/02/12 10:05:29;;;;;;;15.10;5.42;;;;;;;1.67;100.00;100971.37;1767151;80;21117;-70
2022/02/12 10:08:15;;;;;;;10.55;5.17;;;;;;;1.69;100.00;100979.19;1763383;80;21264;-70
2022/02/12 10:10:40;;;;;;;12.10;5.10;;;;;;;1.66;100.00;100988.25;1766916;80;21102;-72
2022/02/12 10:13:24;;;;;;;13.85;5.15;;;;;;;1.67;100.00;100989.98;1772990;80;21048;-71
2022/02/12 10:15:56;;;;;;;10.70;4.72;;;;;;;1.71;100.00;100991.77;1769498;80;21113;-70
2022/02/12 10:18:30;;;;;;;13.48;5.17;;;;;;;1.73;100.00;100996.56;1767891;79;21115;-71
2022/02/12 10:20:57;;;;;;;13.78;5.80;;;;;;;1.75;100.00;100995.27;1760787;80;21102;-71
2022/02/12 10:23:31;;;;;;;12.90;4.87;;;;;;;1.73;100.00;100997.86;1756947;80;21683;-70
2022/02/12 10:26:06;;;;;;;8.33;4.53;;;;;;;1.73;100.00;101001.75;1767856;80;21113;-71
2022/02/12 10:28:38;;;;;;;10.55;4.87;;;;;;;1.77;100.00;101009.14;1765467;80;21020;-71
2022/02/12 10:31:05;;;;;;;12.05;4.80;;;;;;;1.82;100.00;101021.35;1754562;80;21054;-71
2022/02/12 10:33:48;;;;;;;10.50;5.00;;;;;;;1.86;100.00;101020.55;1760424;80;21150;-70
2022/02/12 10:36:18;;;;;;;10.85;4.42;;;;;;;1.95;100.00;101024.09;1757299;80;21025;-70
2022/02/12 10:38:54;;;;;;;12.60;4.42;;;;;;;2.05;100.00;101025.97;1750860;80;21025;-69
2022/02/12 10:41:22;;;;;;;9.55;4.20;;;;;;;2.11;100.00;101023.42;1749528;80;21542;-70
2022/02/12 10:43:52;;;;;;;11.03;4.22;;;;;;;2.34;100.00;101026.72;1757785;80;21039;-69
2022/02/12 10:46:19;;;;;;;8.37;3.30;;;;;;;2.34;100.00;101026.72;1762263;80;21122;-68
2022/02/12 10:48:48;;;;;;;11.03;4.05;;;;;;;2.43;100.00;101034.62;1710090;83;21591;-69
2022/02/12 10:51:16;;;;;;;9.50;3.58;;;;;;;2.54;100.00;101035.61;1697199;83;22160;-69
2022/02/12 10:54:07;;;;;;;11.12;3.10;;;;;;;2.64;100.00;101037.42;1748684;80;21612;-70
2022/02/12 10:56:53;;;;;;;10.48;3.40;;;;;;;2.67;100.00;101042.68;1774503;80;21064;-69
2022/02/12 10:59:22;;;;;;;7.70;3.05;;;;;;;2.72;100.00;101048.80;1762311;80;21084;-68
2022/02/12 11:01:49;;;;;;;9.13;3.25;;;;;;;2.80;100.00;101040.19;1777744;80;21036;-70
2022/02/12 11:04:16;;;;;;;5.78;2.90;;;;;;;2.98;100.00;101048.16;1751559;80;21032;-70
2022/02/12 11:06:47;;;;;;;10.10;3.20;;;;;;;3.15;100.00;101050.48;1747527;82;21088;-69
2022/02/12 11:09:14;;;;;;;6.97;3.47;;;;;;;3.42;100.00;101054.14;1757713;80;21085;-69
2022/02/12 11:11:41;;;;;;;19.40;3.87;;;;;;;3.70;100.00;101056.48;1751013;80;21106;-70
2022/02/12 11:14:08;;;;;;;8.63;3.10;;;;;;;3.83;100.00;101056.13;1764994;80;21036;-70
2022/02/12 11:16:36;;;;;;;9.63;3.27;;;;;;;3.86;100.00;101063.95;1769835;80;21037;-70
2022/02/12 11:19:04;;;;;;;9.93;3.52;;;;;;;4.04;100.00;101063.63;1767434;80;21013;-70
2022/02/12 11:21:31;;;;;;;8.55;3.10;;;;;;;4.48;100.00;101054.65;1747526;80;21084;-71
2022/02/12 11:24:05;;;;;;;9.30;3.40;;;;;;;5.34;100.00;101052.59;1747247;81;21096;-71
2022/02/12 11:26:44;;;;;;;8.45;3.22;;;;;;;5.83;100.00;101056.41;1748036;80;21545;-70
2022/02/12 11:29:33;;;;;;;9.48;3.17;;;;;;;6.01;100.00;101063.36;1752424;80;21040;-70
2022/02/12 11:32:12;;;;;;;9.35;2.80;;;;;;;5.91;97.09;101059.85;1764185;80;21032;-70